createdAt,value
2023-05-17T00:01:03.719Z,2.07
2023-05-17T00:05:07.640Z,2.10
2023-05-17T00:09:08.002Z,1.97
2023-05-17T00:13:08.260Z,2.10
2023-05-17T00:17:08.999Z,1.93
2023-05-17T00:21:12.479Z,2.20
2023-05-17T00:25:13.253Z,2.00
2023-05-17T00:29:13.562Z,1.97
2023-05-17T00:33:15.554Z,2.20
2023-05-17T00:37:18.417Z,2.30
2023-05-17T00:41:18.882Z,2.10
2023-05-17T00:45:19.699Z,2.00
2023-05-17T00:49:20.228Z,1.70
2023-05-17T00:53:23.425Z,1.93
2023-05-17T00:57:23.919Z,1.67
2023-05-17T01:01:25.325Z,1.97
2023-05-17T01:05:29.136Z,2.13
2023-05-17T01:09:32.870Z,2.10
2023-05-17T01:13:43.515Z,1.80
2023-05-17T01:17:56.172Z,1.60
2023-05-17T01:22:18.188Z,1.63
2023-05-17T01:26:23.994Z,1.70
2023-05-17T01:30:31.572Z,1.63
2023-05-17T01:34:33.089Z,1.73
2023-05-17T01:38:33.348Z,1.60
2023-05-17T01:42:36.212Z,1.80
2023-05-17T01:46:44.449Z,1.67
2023-05-17T01:50:47.692Z,1.60
2023-05-17T01:54:59.430Z,2.10
2023-05-17T01:59:02.267Z,1.60
2023-05-17T02:03:06.458Z,1.70
2023-05-17T02:07:07.207Z,1.40
2023-05-17T02:11:07.787Z,1.53
2023-05-17T02:15:12.227Z,1.50
2023-05-17T02:19:15.524Z,1.63
2023-05-17T02:23:15.729Z,2.00
2023-05-17T02:27:16.264Z,1.60
2023-05-17T02:31:16.636Z,1.60
2023-05-17T02:35:19.574Z,1.60
2023-05-17T02:39:19.866Z,1.73
2023-05-17T02:43:20.207Z,2.00
2023-05-17T02:47:21.372Z,1.60
2023-05-17T02:51:24.720Z,1.70
2023-05-17T02:55:25.013Z,1.60
2023-05-17T02:59:25.400Z,1.70
2023-05-17T03:03:26.185Z,1.93
2023-05-17T03:07:29.068Z,1.97
2023-05-17T03:11:29.635Z,1.90
2023-05-17T03:15:32.247Z,2.10
2023-05-17T03:19:32.655Z,1.73
2023-05-17T03:23:36.744Z,1.90
2023-05-17T03:27:37.085Z,2.70
2023-05-17T03:31:38.919Z,2.63
2023-05-17T03:35:39.174Z,2.10
2023-05-17T03:39:42.034Z,2.17
2023-05-17T03:43:42.688Z,1.70
2023-05-17T03:47:45.562Z,2.00
2023-05-17T03:51:45.995Z,2.00
2023-05-17T03:55:49.042Z,1.60
2023-05-17T03:59:51.014Z,1.43
2023-05-17T04:03:53.172Z,1.63
2023-05-17T04:07:54.968Z,1.60
2023-05-17T04:11:58.677Z,1.93
2023-05-17T04:15:59.789Z,2.00
2023-05-17T04:20:00.147Z,1.90
2023-05-17T04:24:00.987Z,1.80
2023-05-17T04:28:05.571Z,1.87
2023-05-17T04:32:06.009Z,2.23
2023-05-17T04:36:07.197Z,1.50
2023-05-17T04:40:11.355Z,2.20
2023-05-17T04:44:15.037Z,1.83
2023-05-17T04:48:17.020Z,2.63
2023-05-17T04:52:17.340Z,2.70
2023-05-17T04:56:19.381Z,2.10
2023-05-17T05:00:24.183Z,2.03
2023-05-17T05:04:33.183Z,2.67
2023-05-17T05:08:37.862Z,2.60
2023-05-17T05:12:41.580Z,2.40
2023-05-17T05:16:44.634Z,2.80
2023-05-17T05:20:44.960Z,1.80
2023-05-17T05:24:45.449Z,2.37
2023-05-17T05:28:46.892Z,2.00
2023-05-17T05:32:50.298Z,1.90
2023-05-17T05:36:50.701Z,2.27
2023-05-17T05:40:54.110Z,2.40
2023-05-17T05:44:54.554Z,2.73
2023-05-17T05:48:58.974Z,2.90
2023-05-17T05:53:14.547Z,2.97
2023-05-17T05:57:21.125Z,2.47
2023-05-17T06:01:22.530Z,2.77
2023-05-17T06:05:26.215Z,3.10
2023-05-17T06:09:26.600Z,2.90
2023-05-17T06:13:26.830Z,2.87
2023-05-17T06:17:27.581Z,3.23
2023-05-17T06:21:30.453Z,3.10
2023-05-17T06:25:30.811Z,3.43
2023-05-17T06:29:31.139Z,3.20
2023-05-17T06:33:33.970Z,3.63
2023-05-17T06:37:37.132Z,3.10
2023-05-17T06:41:37.576Z,3.43
2023-05-17T06:45:37.819Z,3.50
2023-05-17T06:49:38.094Z,3.00
2023-05-17T06:53:41.148Z,3.70
2023-05-17T06:57:41.492Z,3.40
2023-05-17T07:01:42.555Z,3.40
2023-05-17T07:05:42.829Z,3.37
2023-05-17T07:09:45.903Z,3.23
2023-05-17T07:13:46.904Z,3.30
2023-05-17T07:17:47.372Z,3.80
2023-05-17T07:21:48.355Z,3.70
2023-05-17T07:25:51.380Z,3.70
2023-05-17T07:29:51.629Z,3.67
2023-05-17T07:33:51.958Z,3.70
2023-05-17T07:37:53.627Z,3.40
2023-05-17T07:41:56.579Z,3.23
2023-05-17T07:45:59.897Z,3.73
2023-05-17T07:50:00.646Z,3.00
2023-05-17T07:54:03.382Z,3.28
2023-05-17T07:58:06.201Z,3.63
2023-05-17T08:02:06.592Z,3.35
2023-05-17T08:06:08.176Z,3.33
2023-05-17T08:10:10.444Z,3.42
2023-05-17T08:14:16.179Z,3.38
2023-05-17T08:18:16.526Z,3.50
2023-05-17T08:22:16.969Z,3.33
2023-05-17T08:26:19.100Z,3.05
2023-05-17T08:34:28.336Z,3.28
2023-05-17T08:38:28.755Z,3.13
2023-05-17T08:42:30.035Z,4.05
2023-05-17T08:46:35.437Z,3.80
2023-05-17T08:50:38.569Z,3.50
2023-05-17T08:54:39.157Z,3.33
2023-05-17T08:58:55.684Z,3.50
2023-05-17T09:03:00.988Z,3.05
2023-05-17T09:07:01.526Z,3.38
2023-05-17T09:11:02.277Z,3.40
2023-05-17T09:15:17.179Z,3.45
2023-05-17T09:19:21.128Z,3.40
2023-05-17T09:23:24.333Z,3.53
2023-05-17T09:27:24.659Z,3.47
2023-05-17T09:31:24.918Z,3.63
2023-05-17T09:35:34.466Z,3.25
2023-05-17T09:39:36.399Z,3.35
2023-05-17T09:43:38.042Z,2.90
2023-05-17T09:47:38.616Z,2.95
2023-05-17T09:51:44.195Z,2.65
2023-05-17T09:55:44.516Z,2.95
2023-05-17T09:59:45.571Z,3.00
2023-05-17T10:03:46.803Z,3.05
2023-05-17T10:07:52.881Z,2.75
2023-05-17T10:11:56.751Z,2.90
2023-05-17T10:15:58.163Z,2.63
2023-05-17T10:19:59.803Z,2.97
2023-05-17T10:24:06.399Z,3.00
2023-05-17T10:28:09.225Z,2.63
2023-05-17T10:32:11.137Z,2.60
2023-05-17T10:36:13.816Z,2.78
2023-05-17T10:40:20.414Z,2.70
2023-05-17T10:44:22.365Z,2.55
2023-05-17T10:48:22.773Z,2.58
2023-05-17T10:52:26.290Z,2.50
2023-05-17T10:56:29.176Z,2.67
2023-05-17T11:00:33.387Z,2.45
2023-05-17T11:04:39.048Z,2.40
2023-05-17T11:08:40.982Z,2.47
2023-05-17T11:12:47.073Z,2.75
2023-05-17T11:16:47.369Z,2.78
2023-05-17T11:20:51.065Z,2.88
2023-05-17T11:24:56.077Z,2.75
2023-05-17T11:29:10.592Z,2.80
2023-05-17T11:33:24.793Z,2.95
2023-05-17T11:37:32.999Z,3.10
2023-05-17T11:41:33.570Z,2.88
2023-05-17T11:45:45.403Z,3.00
2023-05-17T11:49:45.659Z,2.92
2023-05-17T11:53:47.495Z,2.83
2023-05-17T11:57:48.084Z,3.05
2023-05-17T12:01:53.697Z,3.10
2023-05-17T12:06:04.908Z,2.42
2023-05-17T12:10:07.210Z,3.30
2023-05-17T12:14:09.165Z,3.03
2023-05-17T12:18:12.606Z,3.10
2023-05-17T12:22:15.390Z,3.00
2023-05-17T12:26:17.589Z,3.15
2023-05-17T12:30:19.645Z,3.22
2023-05-17T12:34:23.446Z,2.72
2023-05-17T12:38:24.055Z,2.78
2023-05-17T12:42:25.564Z,2.78
2023-05-17T12:46:27.309Z,2.28
2023-05-17T12:50:35.880Z,2.55
2023-05-17T12:54:37.027Z,2.83
2023-05-17T12:58:37.665Z,3.08
2023-05-17T13:02:38.079Z,2.50
2023-05-17T13:07:00.909Z,2.75
2023-05-17T13:11:17.520Z,2.80
2023-05-17T13:15:18.324Z,2.80
2023-05-17T13:19:18.763Z,2.80
2023-05-17T13:23:22.077Z,2.70
2023-05-17T13:27:22.729Z,2.90
2023-05-17T13:31:22.923Z,2.78
2023-05-17T13:35:23.357Z,2.97
2023-05-17T13:39:26.865Z,3.35
2023-05-17T13:43:27.243Z,2.90
2023-05-17T13:47:30.140Z,3.20
2023-05-17T13:51:30.531Z,3.20
2023-05-17T13:55:33.561Z,3.17
2023-05-17T13:59:34.519Z,3.63
2023-05-17T14:03:35.904Z,2.97
2023-05-17T14:07:36.578Z,3.03
2023-05-17T14:11:39.665Z,3.05
2023-05-17T14:15:40.200Z,2.60
2023-05-17T14:19:40.671Z,2.90
2023-05-17T14:23:41.240Z,2.88
2023-05-17T14:27:44.153Z,2.97
2023-05-17T14:31:44.647Z,3.10
2023-05-17T14:35:45.017Z,2.78
2023-05-17T14:39:55.249Z,2.95
2023-05-17T14:44:08.590Z,3.20
2023-05-17T14:48:10.226Z,3.08
2023-05-17T14:52:11.363Z,2.97
2023-05-17T14:56:11.576Z,3.17
2023-05-17T15:00:16.271Z,2.75
2023-05-17T15:04:16.927Z,3.00
2023-05-17T15:08:17.266Z,2.80
2023-05-17T15:12:17.478Z,2.85
2023-05-17T15:16:21.334Z,2.88
2023-05-17T15:20:23.666Z,2.60
2023-05-17T15:24:24.028Z,2.60
2023-05-17T15:28:24.631Z,2.90
2023-05-17T15:32:27.823Z,2.95
2023-05-17T15:36:28.432Z,3.05
2023-05-17T15:40:28.833Z,2.75
2023-05-17T15:44:29.096Z,2.92
2023-05-17T15:48:32.084Z,2.80
2023-05-17T15:52:33.497Z,2.60
2023-05-17T15:56:33.842Z,2.90
2023-05-17T16:00:34.301Z,2.90
2023-05-17T16:04:37.846Z,3.00
2023-05-17T16:08:41.738Z,2.92
2023-05-17T16:12:42.180Z,3.15
2023-05-17T16:16:45.008Z,3.00
2023-05-17T16:20:48.324Z,2.75
2023-05-17T16:24:48.773Z,2.83
2023-05-17T16:28:48.927Z,3.10
2023-05-17T16:32:50.157Z,3.03
2023-05-17T16:36:53.438Z,3.20
2023-05-17T16:40:53.786Z,2.80
2023-05-17T16:44:54.198Z,2.70
2023-05-17T16:48:55.658Z,2.90
2023-05-17T16:52:58.794Z,2.55
2023-05-17T16:56:59.225Z,2.50
2023-05-17T17:00:59.418Z,2.63
2023-05-17T17:05:00.318Z,2.70
2023-05-17T17:09:07.898Z,2.60
2023-05-17T17:13:08.539Z,3.03
2023-05-17T17:17:09.123Z,3.45
2023-05-17T17:21:09.668Z,3.38
2023-05-17T17:25:13.548Z,3.60
2023-05-17T17:29:13.778Z,3.42
2023-05-17T17:33:14.151Z,2.55
2023-05-17T17:37:14.531Z,2.90
2023-05-17T17:41:17.362Z,2.85
2023-05-17T17:45:17.856Z,2.70
2023-05-17T17:49:18.247Z,3.25
2023-05-17T17:53:19.418Z,2.88
2023-05-17T17:57:23.142Z,3.42
2023-05-17T18:01:23.566Z,2.83
2023-05-17T18:05:25.559Z,3.25
2023-05-17T18:09:26.391Z,3.00
2023-05-17T18:13:29.292Z,3.00
2023-05-17T18:17:29.694Z,3.33
2023-05-17T18:21:31.121Z,3.00
2023-05-17T18:25:31.563Z,3.00
2023-05-17T18:29:34.432Z,3.00
2023-05-17T18:33:35.352Z,2.93
2023-05-17T18:37:36.477Z,3.33
2023-05-17T18:41:36.744Z,4.20
2023-05-17T18:45:39.734Z,4.67
2023-05-17T18:49:42.105Z,4.40
2023-05-17T18:53:42.260Z,4.53
2023-05-17T18:57:42.594Z,4.90
2023-05-17T19:01:45.840Z,9.50
2023-05-17T19:05:46.251Z,7.63
2023-05-17T19:09:46.602Z,6.30
2023-05-17T19:13:47.151Z,5.50
2023-05-17T19:17:50.198Z,6.37
2023-05-17T19:21:50.454Z,6.20
2023-05-17T19:25:51.141Z,17.57
2023-05-17T19:29:51.997Z,10.37
2023-05-17T19:33:54.755Z,8.73
2023-05-17T19:37:56.843Z,12.00
2023-05-17T19:41:57.205Z,9.40
2023-05-17T19:45:57.564Z,7.83
2023-05-17T19:50:00.427Z,7.37
2023-05-17T19:54:00.737Z,8.47
2023-05-17T19:58:01.634Z,8.10
2023-05-17T20:02:02.013Z,9.10
2023-05-17T20:06:05.574Z,6.47
2023-05-17T20:10:06.911Z,6.83
2023-05-17T20:14:07.663Z,5.93
2023-05-17T20:18:13.106Z,5.97
2023-05-17T20:22:16.791Z,6.57
2023-05-17T20:26:25.923Z,5.30
2023-05-17T20:30:26.336Z,5.83
2023-05-17T20:34:28.512Z,6.40
2023-05-17T20:38:31.738Z,6.27
2023-05-17T20:42:32.856Z,5.80
2023-05-17T20:46:33.722Z,6.60
2023-05-17T20:50:34.131Z,6.10
2023-05-17T20:54:37.302Z,4.90
2023-05-17T20:58:37.892Z,3.90
2023-05-17T21:02:38.639Z,7.40
2023-05-17T21:06:39.475Z,5.60
2023-05-17T21:10:46.686Z,10.93
2023-05-17T21:14:54.224Z,6.00
2023-05-17T21:19:01.347Z,4.57
2023-05-17T21:23:01.759Z,5.77
2023-05-17T21:27:04.685Z,7.93
2023-05-17T21:31:06.531Z,10.10
2023-05-17T21:35:08.345Z,4.10
2023-05-17T21:39:08.788Z,4.30
2023-05-17T21:43:12.712Z,4.47
2023-05-17T21:47:13.207Z,4.20
2023-05-17T21:51:15.607Z,4.47
2023-05-17T21:55:15.903Z,5.67
2023-05-17T21:59:19.260Z,4.57
2023-05-17T22:03:19.679Z,3.90
2023-05-17T22:07:20.372Z,5.10
2023-05-17T22:11:23.021Z,7.93
2023-05-17T22:15:26.441Z,6.70
2023-05-17T22:19:26.773Z,7.47
2023-05-17T22:23:27.039Z,5.40
2023-05-17T22:27:27.275Z,7.40
2023-05-17T22:31:30.877Z,7.37
2023-05-17T22:35:31.792Z,5.30
2023-05-17T22:39:32.036Z,5.30
2023-05-17T22:43:32.680Z,6.10
2023-05-17T22:47:35.887Z,8.30
2023-05-17T22:51:36.424Z,5.93
2023-05-17T22:55:36.679Z,4.60
2023-05-17T22:59:36.943Z,4.53
2023-05-17T23:03:40.943Z,4.40
2023-05-17T23:07:43.525Z,4.50
2023-05-17T23:11:43.787Z,4.70
2023-05-17T23:15:47.005Z,4.43
2023-05-17T23:19:50.021Z,4.87
2023-05-17T23:23:53.636Z,4.50
2023-05-17T23:27:54.330Z,4.87
2023-05-17T23:31:54.596Z,4.87
2023-05-17T23:35:57.417Z,4.40
2023-05-17T23:39:57.620Z,4.10
2023-05-17T23:43:57.830Z,3.90
2023-05-17T23:48:00.637Z,4.37
2023-05-17T23:52:03.781Z,4.00
2023-05-17T23:56:05.115Z,3.80
